Terminal Aerodrome Forecast
Issued by NWS

Home | Current Version | Previous Version | Text Only | Print | Product List | Glossary On
Versions: 1 2 3 4 5 6 7 8 9 10 11 12 13 14 15
000
FTUS42 TJSJ 052341
TAFJSJ
TAF
TJSJ 052341Z 0600/0624 09008KT P6SM FEW025 SCT040
     FM061330 12010KT P6SM FEW030 SCT050
     FM062330 09008KT P6SM SCT025 SCT040=

USA.gov is the U.S. government's official web portal to all federal, state and local government web resources and services.